sensor_id;sensor_type;location;lat;lon;timestamp;pressure;altitude;pressure_sealevel;temperature;humidity
48862;BME280;34681;49.188;-0.374;2024-02-14T00:00:37;101369.81;;;12.86;78.70
48862;BME280;34681;49.188;-0.374;2024-02-14T00:03:02;101363.00;;;12.90;78.67
48862;BME280;34681;49.188;-0.374;2024-02-14T00:05:28;101364.75;;;12.91;79.11
48862;BME280;34681;49.188;-0.374;2024-02-14T00:07:54;101369.63;;;12.98;78.86
48862;BME280;34681;49.188;-0.374;2024-02-14T00:10:19;101369.38;;;13.01;79.06
48862;BME280;34681;49.188;-0.374;2024-02-14T00:12:44;101376.44;;;13.03;78.93
48862;BME280;34681;49.188;-0.374;2024-02-14T00:15:11;101367.88;;;13.06;78.78
48862;BME280;34681;49.188;-0.374;2024-02-14T00:17:37;101369.78;;;13.06;78.95
48862;BME280;34681;49.188;-0.374;2024-02-14T00:20:03;101370.19;;;13.11;78.83
48862;BME280;34681;49.188;-0.374;2024-02-14T00:22:29;101369.34;;;13.10;78.68
48862;BME280;34681;49.188;-0.374;2024-02-14T00:24:55;101370.34;;;13.09;78.62
48862;BME280;34681;49.188;-0.374;2024-02-14T00:27:20;101368.03;;;13.05;78.68
48862;BME280;34681;49.188;-0.374;2024-02-14T00:29:46;101359.78;;;13.05;78.49
48862;BME280;34681;49.188;-0.374;2024-02-14T00:32:15;101362.28;;;13.08;78.61
48862;BME280;34681;49.188;-0.374;2024-02-14T00:34:40;101367.75;;;12.98;78.53
48862;BME280;34681;49.188;-0.374;2024-02-14T00:37:06;101362.56;;;12.95;78.57
48862;BME280;34681;49.188;-0.374;2024-02-14T00:39:31;101379.63;;;12.89;78.70
48862;BME280;34681;49.188;-0.374;2024-02-14T00:41:56;101371.69;;;12.86;78.80
48862;BME280;34681;49.188;-0.374;2024-02-14T00:44:22;101377.59;;;12.81;79.15
48862;BME280;34681;49.188;-0.374;2024-02-14T00:46:47;101372.41;;;12.78;79.65
48862;BME280;34681;49.188;-0.374;2024-02-14T00:49:16;101378.06;;;12.77;79.75
48862;BME280;34681;49.188;-0.374;2024-02-14T00:51:41;101369.38;;;12.81;79.66
48862;BME280;34681;49.188;-0.374;2024-02-14T00:54:06;101383.25;;;12.80;79.76
48862;BME280;34681;49.188;-0.374;2024-02-14T00:56:33;101388.47;;;12.83;79.75
48862;BME280;34681;49.188;-0.374;2024-02-14T00:58:58;101393.06;;;12.82;79.90
48862;BME280;34681;49.188;-0.374;2024-02-14T01:01:24;101392.34;;;12.80;80.43
48862;BME280;34681;49.188;-0.374;2024-02-14T01:03:49;101388.03;;;12.87;80.25
48862;BME280;34681;49.188;-0.374;2024-02-14T01:06:15;101391.06;;;12.94;80.54
48862;BME280;34681;49.188;-0.374;2024-02-14T01:08:41;101390.91;;;12.96;80.84
48862;BME280;34681;49.188;-0.374;2024-02-14T01:11:07;101402.19;;;13.02;80.47
48862;BME280;34681;49.188;-0.374;2024-02-14T01:13:33;101395.81;;;13.02;80.18
48862;BME280;34681;49.188;-0.374;2024-02-14T01:15:58;101388.59;;;13.01;80.47
48862;BME280;34681;49.188;-0.374;2024-02-14T01:18:24;101394.25;;;12.99;80.37
48862;BME280;34681;49.188;-0.374;2024-02-14T01:20:49;101393.78;;;13.04;80.60
48862;BME280;34681;49.188;-0.374;2024-02-14T01:23:14;101386.22;;;13.15;80.39
48862;BME280;34681;49.188;-0.374;2024-02-14T01:25:40;101377.44;;;13.21;80.30
48862;BME280;34681;49.188;-0.374;2024-02-14T01:28:07;101386.69;;;13.20;80.36
48862;BME280;34681;49.188;-0.374;2024-02-14T01:30:33;101389.56;;;13.19;80.52
48862;BME280;34681;49.188;-0.374;2024-02-14T01:33:01;101384.53;;;13.24;80.52
48862;BME280;34681;49.188;-0.374;2024-02-14T01:35:26;101388.13;;;13.34;80.49
48862;BME280;34681;49.188;-0.374;2024-02-14T01:37:52;101397.81;;;13.29;80.73
48862;BME280;34681;49.188;-0.374;2024-02-14T01:40:18;101397.50;;;13.32;80.68
48862;BME280;34681;49.188;-0.374;2024-02-14T01:42:43;101408.06;;;13.36;80.52
48862;BME280;34681;49.188;-0.374;2024-02-14T01:45:08;101401.25;;;13.40;80.57
48862;BME280;34681;49.188;-0.374;2024-02-14T01:47:34;101406.16;;;13.46;80.31
48862;BME280;34681;49.188;-0.374;2024-02-14T01:50:00;101415.53;;;13.54;80.19
48862;BME280;34681;49.188;-0.374;2024-02-14T01:52:25;101413.38;;;13.57;80.39
48862;BME280;34681;49.188;-0.374;2024-02-14T01:54:52;101407.25;;;13.63;80.30
48862;BME280;34681;49.188;-0.374;2024-02-14T01:57:20;101402.75;;;13.62;80.43
48862;BME280;34681;49.188;-0.374;2024-02-14T01:59:46;101397.00;;;13.65;80.53
48862;BME280;34681;49.188;-0.374;2024-02-14T02:02:14;101402.16;;;13.68;80.38
48862;BME280;34681;49.188;-0.374;2024-02-14T02:04:39;101394.31;;;13.73;80.43
48862;BME280;34681;49.188;-0.374;2024-02-14T02:07:04;101400.84;;;13.72;80.23
48862;BME280;34681;49.188;-0.374;2024-02-14T02:09:30;101400.56;;;13.75;80.11
48862;BME280;34681;49.188;-0.374;2024-02-14T02:11:56;101398.56;;;13.68;79.96
48862;BME280;34681;49.188;-0.374;2024-02-14T02:14:22;101405.06;;;13.67;79.97
48862;BME280;34681;49.188;-0.374;2024-02-14T02:16:47;101411.28;;;13.69;80.05
48862;BME280;34681;49.188;-0.374;2024-02-14T02:19:13;101414.47;;;13.74;80.01
48862;BME280;34681;49.188;-0.374;2024-02-14T02:21:41;101411.56;;;13.75;80.15
48862;BME280;34681;49.188;-0.374;2024-02-14T02:24:09;101405.75;;;13.78;79.76
48862;BME280;34681;49.188;-0.374;2024-02-14T02:26:34;101414.41;;;13.84;79.69
48862;BME280;34681;49.188;-0.374;2024-02-14T02:28:59;101417.31;;;13.82;79.94
48862;BME280;34681;49.188;-0.374;2024-02-14T02:31:25;101419.50;;;13.78;79.78
48862;BME280;34681;49.188;-0.374;2024-02-14T02:33:51;101417.00;;;13.85;79.64
48862;BME280;34681;49.188;-0.374;2024-02-14T02:36:17;101415.56;;;13.81;79.84
48862;BME280;34681;49.188;-0.374;2024-02-14T02:38:42;101408.44;;;13.88;79.62
48862;BME280;34681;49.188;-0.374;2024-02-14T02:41:07;101406.88;;;13.86;79.63
48862;BME280;34681;49.188;-0.374;2024-02-14T02:43:33;101409.63;;;13.86;79.69
48862;BME280;34681;49.188;-0.374;2024-02-14T02:45:59;101406.88;;;13.86;79.63
48862;BME280;34681;49.188;-0.374;2024-02-14T02:48:25;101411.03;;;13.90;79.53
48862;BME280;34681;49.188;-0.374;2024-02-14T02:50:51;101408.75;;;13.85;79.49
48862;BME280;34681;49.188;-0.374;2024-02-14T02:53:17;101411.19;;;13.88;79.64
48862;BME280;34681;49.188;-0.374;2024-02-14T02:55:42;101404.66;;;13.89;79.54
48862;BME280;34681;49.188;-0.374;2024-02-14T02:58:08;101401.06;;;13.89;79.32
48862;BME280;34681;49.188;-0.374;2024-02-14T03:00:33;101409.78;;;13.84;79.61
48862;BME280;34681;49.188;-0.374;2024-02-14T03:02:59;101409.78;;;13.84;79.34
48862;BME280;34681;49.188;-0.374;2024-02-14T03:05:25;101409.63;;;13.86;79.32
48862;BME280;34681;49.188;-0.374;2024-02-14T03:07:51;101414.97;;;13.87;79.39
48862;BME280;34681;49.188;-0.374;2024-02-14T03:10:17;101415.66;;;13.89;79.46
48862;BME280;34681;49.188;-0.374;2024-02-14T03:12:47;101418.41;;;13.89;79.72
48862;BME280;34681;49.188;-0.374;2024-02-14T03:15:13;101417.13;;;13.93;79.61
48862;BME280;34681;49.188;-0.374;2024-02-14T03:17:39;101411.44;;;13.95;79.58
48862;BME280;34681;49.188;-0.374;2024-02-14T03:20:05;101407.06;;;14.02;79.58
48862;BME280;34681;49.188;-0.374;2024-02-14T03:22:38;101405.50;;;13.99;79.79
48862;BME280;34681;49.188;-0.374;2024-02-14T03:25:07;101407.22;;;14.00;79.64
48862;BME280;34681;49.188;-0.374;2024-02-14T03:27:33;101405.41;;;13.91;79.97
48862;BME280;34681;49.188;-0.374;2024-02-14T03:30:00;101402.75;;;13.99;79.84
48862;BME280;34681;49.188;-0.374;2024-02-14T03:32:27;101404.75;;;14.07;79.74
48862;BME280;34681;49.188;-0.374;2024-02-14T03:34:52;101395.91;;;14.03;79.64
48862;BME280;34681;49.188;-0.374;2024-02-14T03:37:18;101395.66;;;13.97;79.64
48862;BME280;34681;49.188;-0.374;2024-02-14T03:39:43;101394.50;;;13.99;79.35
48862;BME280;34681;49.188;-0.374;2024-02-14T03:42:10;101391.88;;;13.98;79.77
48862;BME280;34681;49.188;-0.374;2024-02-14T03:44:36;101388.41;;;13.96;79.92
48862;BME280;34681;49.188;-0.374;2024-02-14T03:47:03;101382.75;;;13.97;79.88
48862;BME280;34681;49.188;-0.374;2024-02-14T03:49:29;101377.34;;;14.05;79.92
48862;BME280;34681;49.188;-0.374;2024-02-14T03:51:55;101379.41;;;14.03;79.93
48862;BME280;34681;49.188;-0.374;2024-02-14T03:54:21;101370.81;;;14.06;79.77
48862;BME280;34681;49.188;-0.374;2024-02-14T03:56:46;101364.94;;;14.01;79.89
48862;BME280;34681;49.188;-0.374;2024-02-14T03:59:12;101377.34;;;14.05;80.00
48862;BME280;34681;49.188;-0.374;2024-02-14T04:01:37;101364.34;;;14.08;79.82
48862;BME280;34681;49.188;-0.374;2024-02-14T04:04:03;101373.13;;;14.11;79.53
48862;BME280;34681;49.188;-0.374;2024-02-14T04:06:29;101387.75;;;14.12;79.40
48862;BME280;34681;49.188;-0.374;2024-02-14T04:08:56;101380.06;;;14.15;79.61
48862;BME280;34681;49.188;-0.374;2024-02-14T04:11:22;101378.56;;;14.21;79.18
48862;BME280;34681;49.188;-0.374;2024-02-14T04:13:47;101380.44;;;14.20;79.47
48862;BME280;34681;49.188;-0.374;2024-02-14T04:16:12;101383.03;;;14.22;79.18
48862;BME280;34681;49.188;-0.374;2024-02-14T04:18:38;101386.97;;;14.19;79.07
48862;BME280;34681;49.188;-0.374;2024-02-14T04:21:03;101383.78;;;14.24;79.42
48862;BME280;34681;49.188;-0.374;2024-02-14T04:23:29;101378.28;;;14.24;79.40
48862;BME280;34681;49.188;-0.374;2024-02-14T04:25:54;101380.28;;;14.22;79.46
48862;BME280;34681;49.188;-0.374;2024-02-14T04:28:20;101377.88;;;14.19;79.57
48862;BME280;34681;49.188;-0.374;2024-02-14T04:30:45;101386.81;;;14.21;79.54
48862;BME280;34681;49.188;-0.374;2024-02-14T04:33:10;101369.78;;;14.17;79.55
48862;BME280;34681;49.188;-0.374;2024-02-14T04:35:36;101383.03;;;14.22;79.73
48862;BME280;34681;49.188;-0.374;2024-02-14T04:38:02;101372.28;;;14.28;79.50
48862;BME280;34681;49.188;-0.374;2024-02-14T04:40:27;101369.69;;;14.27;79.38
48862;BME280;34681;49.188;-0.374;2024-02-14T04:42:53;101372.59;;;14.25;79.14
48862;BME280;34681;49.188;-0.374;2024-02-14T04:45:18;101364.50;;;14.24;79.39
48862;BME280;34681;49.188;-0.374;2024-02-14T04:47:43;101374.78;;;14.22;79.49
48862;BME280;34681;49.188;-0.374;2024-02-14T04:50:09;101377.78;;;14.28;79.50
48862;BME280;34681;49.188;-0.374;2024-02-14T04:52:35;101383.28;;;14.28;79.39
48862;BME280;34681;49.188;-0.374;2024-02-14T04:55:00;101381.97;;;14.32;79.29
48862;BME280;34681;49.188;-0.374;2024-02-14T04:57:25;101384.16;;;14.29;79.39
48862;BME280;34681;49.188;-0.374;2024-02-14T04:59:51;101383.78;;;14.24;79.52
48862;BME280;34681;49.188;-0.374;2024-02-14T05:02:16;101395.75;;;14.32;79.28
48862;BME280;34681;49.188;-0.374;2024-02-14T05:04:42;101396.44;;;14.34;79.25
48862;BME280;34681;49.188;-0.374;2024-02-14T05:07:07;101397.47;;;14.33;79.12
48862;BME280;34681;49.188;-0.374;2024-02-14T05:09:33;101386.47;;;14.33;79.37
48862;BME280;34681;49.188;-0.374;2024-02-14T05:11:58;101380.53;;;14.28;79.52
48862;BME280;34681;49.188;-0.374;2024-02-14T05:14:25;101375.19;;;14.27;79.38
48862;BME280;34681;49.188;-0.374;2024-02-14T05:16:51;101371.25;;;14.29;79.63
48862;BME280;34681;49.188;-0.374;2024-02-14T05:19:16;101370.97;;;14.32;79.51
48862;BME280;34681;49.188;-0.374;2024-02-14T05:21:41;101366.50;;;14.31;79.47
48862;BME280;34681;49.188;-0.374;2024-02-14T05:24:07;101366.78;;;14.28;79.46
48862;BME280;34681;49.188;-0.374;2024-02-14T05:26:34;101371.84;;;14.33;79.45
48862;BME280;34681;49.188;-0.374;2024-02-14T05:28:59;101386.63;;;14.32;79.48
48862;BME280;34681;49.188;-0.374;2024-02-14T05:31:25;101381.81;;;14.34;79.46
48862;BME280;34681;49.188;-0.374;2024-02-14T05:34:07;101383.38;;;14.37;79.37
48862;BME280;34681;49.188;-0.374;2024-02-14T05:36:32;101387.31;;;14.34;79.11
48862;BME280;34681;49.188;-0.374;2024-02-14T05:38:57;101384.88;;;14.31;79.31
48862;BME280;34681;49.188;-0.374;2024-02-14T05:41:22;101364.59;;;14.32;79.49
48862;BME280;34681;49.188;-0.374;2024-02-14T05:43:49;101365.31;;;14.34;79.09
48862;BME280;34681;49.188;-0.374;2024-02-14T05:46:14;101371.09;;;14.31;79.05
48862;BME280;34681;49.188;-0.374;2024-02-14T05:48:40;101370.81;;;14.34;79.05
48862;BME280;34681;49.188;-0.374;2024-02-14T05:51:05;101357.03;;;14.34;79.01
48862;BME280;34681;49.188;-0.374;2024-02-14T05:53:30;101360.09;;;14.31;79.14
48862;BME280;34681;49.188;-0.374;2024-02-14T05:55:56;101375.75;;;14.30;78.93
48862;BME280;34681;49.188;-0.374;2024-02-14T05:58:21;101383.00;;;14.31;79.09
48862;BME280;34681;49.188;-0.374;2024-02-14T06:00:46;101376.69;;;14.21;79.11
48862;BME280;34681;49.188;-0.374;2024-02-14T06:03:12;101395.50;;;14.26;79.12
48862;BME280;34681;49.188;-0.374;2024-02-14T06:05:37;101391.31;;;14.22;79.19
48862;BME280;34681;49.188;-0.374;2024-02-14T06:08:02;101387.84;;;14.20;79.18
48862;BME280;34681;49.188;-0.374;2024-02-14T06:10:28;101389.56;;;14.21;79.52
48862;BME280;34681;49.188;-0.374;2024-02-14T06:12:53;101383.38;;;14.19;79.57
48862;BME280;34681;49.188;-0.374;2024-02-14T06:15:18;101384.66;;;14.24;79.44
48862;BME280;34681;49.188;-0.374;2024-02-14T06:17:44;101395.66;;;14.24;79.38
48862;BME280;34681;49.188;-0.374;2024-02-14T06:20:10;101397.06;;;14.28;79.25
48862;BME280;34681;49.188;-0.374;2024-02-14T06:22:35;101388.56;;;14.22;79.29
48862;BME280;34681;49.188;-0.374;2024-02-14T06:25:00;101391.56;;;14.28;79.33
48862;BME280;34681;49.188;-0.374;2024-02-14T06:27:26;101394.03;;;14.31;79.15
48862;BME280;34681;49.188;-0.374;2024-02-14T06:29:52;101389.13;;;14.25;79.36
48862;BME280;34681;49.188;-0.374;2024-02-14T06:32:18;101402.28;;;14.31;79.14
48862;BME280;34681;49.188;-0.374;2024-02-14T06:34:43;101393.75;;;14.25;79.24
48862;BME280;34681;49.188;-0.374;2024-02-14T06:37:09;101396.69;;;14.23;79.50
48862;BME280;34681;49.188;-0.374;2024-02-14T06:39:34;101397.53;;;14.24;79.80
48862;BME280;34681;49.188;-0.374;2024-02-14T06:41:59;101394.38;;;14.19;79.77
48862;BME280;34681;49.188;-0.374;2024-02-14T06:44:25;101389.41;;;14.22;79.71
48862;BME280;34681;49.188;-0.374;2024-02-14T06:46:50;101405.94;;;14.22;79.63
48862;BME280;34681;49.188;-0.374;2024-02-14T06:49:16;101399.97;;;14.27;79.46
48862;BME280;34681;49.188;-0.374;2024-02-14T06:51:42;101422.69;;;14.29;79.52
48862;BME280;34681;49.188;-0.374;2024-02-14T06:54:07;101426.41;;;14.38;79.50
48862;BME280;34681;49.188;-0.374;2024-02-14T06:56:33;101423.81;;;14.36;79.55
48862;BME280;34681;49.188;-0.374;2024-02-14T06:58:59;101426.03;;;14.32;79.59
48862;BME280;34681;49.188;-0.374;2024-02-14T07:01:28;101435.66;;;14.46;79.28
48862;BME280;34681;49.188;-0.374;2024-02-14T07:03:53;101434.78;;;14.46;79.17
48862;BME280;34681;49.188;-0.374;2024-02-14T07:06:19;101425.78;;;14.44;79.19
48862;BME280;34681;49.188;-0.374;2024-02-14T07:08:44;101429.69;;;14.51;78.94
48862;BME280;34681;49.188;-0.374;2024-02-14T07:11:10;101447.69;;;14.45;79.27
48862;BME280;34681;49.188;-0.374;2024-02-14T07:13:36;101445.19;;;14.52;79.08
48862;BME280;34681;49.188;-0.374;2024-02-14T07:16:01;101460.53;;;14.54;78.99
48862;BME280;34681;49.188;-0.374;2024-02-14T07:18:27;101456.03;;;14.53;79.31
48862;BME280;34681;49.188;-0.374;2024-02-14T07:20:52;101458.25;;;14.50;79.10
48862;BME280;34681;49.188;-0.374;2024-02-14T07:23:20;101456.63;;;14.57;79.15
48862;BME280;34681;49.188;-0.374;2024-02-14T07:25:46;101460.69;;;14.53;79.22
48862;BME280;34681;49.188;-0.374;2024-02-14T07:28:11;101463.69;;;14.59;79.00
48862;BME280;34681;49.188;-0.374;2024-02-14T07:30:37;101467.63;;;14.57;79.04
48862;BME280;34681;49.188;-0.374;2024-02-14T07:33:02;101465.00;;;14.55;79.27
48862;BME280;34681;49.188;-0.374;2024-02-14T07:35:27;101462.22;;;14.65;78.95
48862;BME280;34681;49.188;-0.374;2024-02-14T07:37:54;101464.81;;;14.67;78.82
48862;BME280;34681;49.188;-0.374;2024-02-14T07:40:20;101479.13;;;14.70;78.75
48862;BME280;34681;49.188;-0.374;2024-02-14T07:42:46;101474.47;;;14.71;78.75
48862;BME280;34681;49.188;-0.374;2024-02-14T07:45:11;101483.06;;;14.68;78.70
48862;BME280;34681;49.188;-0.374;2024-02-14T07:47:37;101489.69;;;14.75;78.60
48862;BME280;34681;49.188;-0.374;2024-02-14T07:50:03;101483.00;;;14.77;78.50
48862;BME280;34681;49.188;-0.374;2024-02-14T07:52:29;101484.72;;;14.78;78.42
48862;BME280;34681;49.188;-0.374;2024-02-14T07:54:55;101472.41;;;14.73;78.64
48862;BME280;34681;49.188;-0.374;2024-02-14T07:57:24;101476.16;;;14.81;78.45
48862;BME280;34681;49.188;-0.374;2024-02-14T07:59:50;101472.75;;;14.87;78.35
48862;BME280;34681;49.188;-0.374;2024-02-14T08:02:17;101486.78;;;14.94;78.07
48862;BME280;34681;49.188;-0.374;2024-02-14T08:04:42;101475.66;;;14.86;78.12
48862;BME280;34681;49.188;-0.374;2024-02-14T08:07:09;101491.97;;;14.97;77.88
48862;BME280;34681;49.188;-0.374;2024-02-14T08:09:34;101492.78;;;14.89;77.94
48862;BME280;34681;49.188;-0.374;2024-02-14T08:12:00;101495.75;;;14.96;77.94
48862;BME280;34681;49.188;-0.374;2024-02-14T08:14:25;101496.00;;;15.03;78.05
48862;BME280;34681;49.188;-0.374;2024-02-14T08:16:51;101497.00;;;15.02;77.79
48862;BME280;34681;49.188;-0.374;2024-02-14T08:19:17;101498.41;;;15.06;77.67
48862;BME280;34681;49.188;-0.374;2024-02-14T08:21:43;101498.03;;;15.01;77.76
48862;BME280;34681;49.188;-0.374;2024-02-14T08:24:09;101497.41;;;15.07;77.70
48862;BME280;34681;49.188;-0.374;2024-02-14T08:26:34;101497.72;;;15.04;77.55
48862;BME280;34681;49.188;-0.374;2024-02-14T08:28:59;101502.16;;;15.14;77.48
48862;BME280;34681;49.188;-0.374;2024-02-14T08:31:25;101513.78;;;15.26;77.10
48862;BME280;34681;49.188;-0.374;2024-02-14T08:33:50;101511.47;;;15.22;77.33
48862;BME280;34681;49.188;-0.374;2024-02-14T08:36:15;101508.19;;;15.18;77.45
48862;BME280;34681;49.188;-0.374;2024-02-14T08:38:47;101510.25;;;15.16;77.13
48862;BME280;34681;49.188;-0.374;2024-02-14T08:41:12;101515.34;;;15.11;77.37
48862;BME280;34681;49.188;-0.374;2024-02-14T08:43:38;101520.53;;;15.14;77.56
48862;BME280;34681;49.188;-0.374;2024-02-14T08:46:09;101518.53;;;15.16;77.39
48862;BME280;34681;49.188;-0.374;2024-02-14T08:48:34;101520.09;;;15.18;77.25
48862;BME280;34681;49.188;-0.374;2024-02-14T08:51:00;101525.25;;;15.22;76.97
48862;BME280;34681;49.188;-0.374;2024-02-14T08:53:25;101527.03;;;15.23;77.17
48862;BME280;34681;49.188;-0.374;2024-02-14T08:55:50;101514.97;;;15.24;77.12
48862;BME280;34681;49.188;-0.374;2024-02-14T08:58:16;101519.69;;;15.31;76.90
48862;BME280;34681;49.188;-0.374;2024-02-14T09:00:42;101519.69;;;15.31;76.92
48862;BME280;34681;49.188;-0.374;2024-02-14T09:03:07;101520.16;;;15.27;77.15
48862;BME280;34681;49.188;-0.374;2024-02-14T09:05:32;101525.22;;;15.31;76.95
48862;BME280;34681;49.188;-0.374;2024-02-14T09:07:58;101524.00;;;15.34;77.00
48862;BME280;34681;49.188;-0.374;2024-02-14T09:10:25;101529.53;;;15.34;76.94
48862;BME280;34681;49.188;-0.374;2024-02-14T09:12:50;101529.28;;;15.45;76.85
48862;BME280;34681;49.188;-0.374;2024-02-14T09:15:16;101532.19;;;15.43;76.75
48862;BME280;34681;49.188;-0.374;2024-02-14T09:17:41;101540.63;;;15.42;76.84
48862;BME280;34681;49.188;-0.374;2024-02-14T09:20:10;101534.41;;;15.40;76.83
48862;BME280;34681;49.188;-0.374;2024-02-14T09:22:39;101534.56;;;15.38;76.92
48862;BME280;34681;49.188;-0.374;2024-02-14T09:25:06;101530.47;;;15.42;76.68
48862;BME280;34681;49.188;-0.374;2024-02-14T09:27:34;101528.56;;;15.43;76.84
48862;BME280;34681;49.188;-0.374;2024-02-14T09:30:00;101522.59;;;15.48;76.78
48862;BME280;34681;49.188;-0.374;2024-02-14T09:32:26;101518.22;;;15.63;76.35
48862;BME280;34681;49.188;-0.374;2024-02-14T09:34:51;101528.63;;;15.69;76.07
48862;BME280;34681;49.188;-0.374;2024-02-14T09:37:16;101523.44;;;15.66;76.04
48862;BME280;34681;49.188;-0.374;2024-02-14T09:39:42;101525.59;;;15.80;75.94
48862;BME280;34681;49.188;-0.374;2024-02-14T09:42:13;101523.06;;;15.87;75.48
48862;BME280;34681;49.188;-0.374;2024-02-14T09:44:40;101524.50;;;15.91;75.15
48862;BME280;34681;49.188;-0.374;2024-02-14T09:47:07;101514.66;;;15.96;75.13
48862;BME280;34681;49.188;-0.374;2024-02-14T09:49:35;101511.56;;;15.91;75.05
48862;BME280;34681;49.188;-0.374;2024-02-14T09:52:02;101512.47;;;16.00;74.77
48862;BME280;34681;49.188;-0.374;2024-02-14T09:54:29;101516.66;;;16.12;74.42
48862;BME280;34681;49.188;-0.374;2024-02-14T09:56:57;101515.84;;;16.20;73.84
48862;BME280;34681;49.188;-0.374;2024-02-14T09:59:23;101514.19;;;16.35;73.64
48862;BME280;34681;49.188;-0.374;2024-02-14T10:01:49;101505.56;;;16.38;73.28
48862;BME280;34681;49.188;-0.374;2024-02-14T10:04:16;101513.44;;;16.59;72.74
48862;BME280;34681;49.188;-0.374;2024-02-14T10:06:43;101524.00;;;16.64;72.44
48862;BME280;34681;49.188;-0.374;2024-02-14T10:09:08;101536.41;;;16.68;71.97
48862;BME280;34681;49.188;-0.374;2024-02-14T10:11:35;101536.81;;;16.73;71.67
48862;BME280;34681;49.188;-0.374;2024-02-14T10:14:01;101538.56;;;16.74;71.70
48862;BME280;34681;49.188;-0.374;2024-02-14T10:16:29;101547.19;;;16.79;71.60
48862;BME280;34681;49.188;-0.374;2024-02-14T10:18:54;101547.72;;;16.74;71.46
48862;BME280;34681;49.188;-0.374;2024-02-14T10:21:21;101549.06;;;16.70;71.56
48862;BME280;34681;49.188;-0.374;2024-02-14T10:23:47;101559.06;;;16.71;71.30
48862;BME280;34681;49.188;-0.374;2024-02-14T10:26:15;101557.84;;;16.66;71.02
48862;BME280;34681;49.188;-0.374;2024-02-14T10:28:42;101553.16;;;16.66;71.35
48862;BME280;34681;49.188;-0.374;2024-02-14T10:31:07;101553.72;;;16.70;71.04
48862;BME280;34681;49.188;-0.374;2024-02-14T10:33:34;101555.31;;;16.72;70.65
48862;BME280;34681;49.188;-0.374;2024-02-14T10:35:59;101550.16;;;16.85;70.50
48862;BME280;34681;49.188;-0.374;2024-02-14T10:38:31;101549.34;;;17.01;70.42
48862;BME280;34681;49.188;-0.374;2024-02-14T10:40:59;101557.84;;;17.16;69.83
48862;BME280;34681;49.188;-0.374;2024-02-14T10:43:25;101551.09;;;17.35;69.36
48862;BME280;34681;49.188;-0.374;2024-02-14T10:45:52;101561.31;;;17.42;68.92
48862;BME280;34681;49.188;-0.374;2024-02-14T10:48:22;101556.84;;;17.50;68.65
48862;BME280;34681;49.188;-0.374;2024-02-14T10:50:53;101559.94;;;17.30;68.59
48862;BME280;34681;49.188;-0.374;2024-02-14T10:53:20;101565.59;;;17.21;68.83
48862;BME280;34681;49.188;-0.374;2024-02-14T10:55:48;101559.22;;;17.20;68.94
48862;BME280;34681;49.188;-0.374;2024-02-14T10:58:16;101558.53;;;17.26;68.72
48862;BME280;34681;49.188;-0.374;2024-02-14T11:00:42;101557.69;;;17.42;68.21
48862;BME280;34681;49.188;-0.374;2024-02-14T11:03:09;101553.06;;;17.75;67.73
48862;BME280;34681;49.188;-0.374;2024-02-14T11:05:45;101558.19;;;18.03;66.86
48862;BME280;34681;49.188;-0.374;2024-02-14T11:08:13;101563.91;;;18.01;66.35
48862;BME280;34681;49.188;-0.374;2024-02-14T11:10:39;101554.75;;;18.01;66.53
48862;BME280;34681;49.188;-0.374;2024-02-14T11:13:09;101551.03;;;18.33;65.34
48862;BME280;34681;49.188;-0.374;2024-02-14T11:15:36;101548.50;;;18.62;64.46
48862;BME280;34681;49.188;-0.374;2024-02-14T11:18:05;101556.22;;;18.83;63.52
48862;BME280;34681;49.188;-0.374;2024-02-14T11:20:34;101564.34;;;18.85;62.91
48862;BME280;34681;49.188;-0.374;2024-02-14T11:23:06;101561.81;;;18.75;63.31
48862;BME280;34681;49.188;-0.374;2024-02-14T11:25:36;101576.03;;;19.03;63.30
48862;BME280;34681;49.188;-0.374;2024-02-14T11:28:16;101576.31;;;19.16;62.30
48862;BME280;34681;49.188;-0.374;2024-02-14T11:30:42;101576.13;;;19.18;61.96
48862;BME280;34681;49.188;-0.374;2024-02-14T11:33:15;101575.16;;;19.33;61.26
48862;BME280;34681;49.188;-0.374;2024-02-14T11:35:41;101568.50;;;19.43;61.11
48862;BME280;34681;49.188;-0.374;2024-02-14T11:38:07;101569.69;;;19.48;60.71
48862;BME280;34681;49.188;-0.374;2024-02-14T11:40:33;101566.38;;;19.53;60.56
48862;BME280;34681;49.188;-0.374;2024-02-14T11:42:58;101567.69;;;19.34;60.23
48862;BME280;34681;49.188;-0.374;2024-02-14T11:45:23;101561.97;;;19.13;60.60
48862;BME280;34681;49.188;-0.374;2024-02-14T11:47:49;101559.25;;;19.04;60.80
48862;BME280;34681;49.188;-0.374;2024-02-14T11:50:17;101568.50;;;19.20;60.31
48862;BME280;34681;49.188;-0.374;2024-02-14T11:52:43;101566.69;;;19.27;60.51
48862;BME280;34681;49.188;-0.374;2024-02-14T11:55:08;101575.28;;;19.40;60.00
48862;BME280;34681;49.188;-0.374;2024-02-14T11:57:35;101579.59;;;19.43;60.44
48862;BME280;34681;49.188;-0.374;2024-02-14T12:00:01;101572.13;;;19.43;60.11
48862;BME280;34681;49.188;-0.374;2024-02-14T12:02:27;101576.88;;;19.34;60.28
48862;BME280;34681;49.188;-0.374;2024-02-14T12:04:53;101571.19;;;19.28;60.55
48862;BME280;34681;49.188;-0.374;2024-02-14T12:07:20;101566.75;;;19.19;60.65
48862;BME280;34681;49.188;-0.374;2024-02-14T12:09:47;101571.38;;;19.03;61.01
48862;BME280;34681;49.188;-0.374;2024-02-14T12:12:14;101571.09;;;18.90;61.22
48862;BME280;34681;49.188;-0.374;2024-02-14T12:14:42;101573.19;;;18.88;61.31
48862;BME280;34681;49.188;-0.374;2024-02-14T12:17:08;101582.34;;;18.97;61.39
48862;BME280;34681;49.188;-0.374;2024-02-14T12:19:34;101590.22;;;19.08;61.34
48862;BME280;34681;49.188;-0.374;2024-02-14T12:22:09;101580.84;;;19.09;61.43
48862;BME280;34681;49.188;-0.374;2024-02-14T12:24:37;101579.47;;;19.13;61.38
48862;BME280;34681;49.188;-0.374;2024-02-14T12:27:04;101576.41;;;19.31;61.22
48862;BME280;34681;49.188;-0.374;2024-02-14T12:29:29;101575.59;;;19.22;61.02
48862;BME280;34681;49.188;-0.374;2024-02-14T12:32:07;101572.34;;;19.11;61.04
48862;BME280;34681;49.188;-0.374;2024-02-14T12:34:33;101568.41;;;19.05;61.21